sensor_id;sensor_type;location;lat;lon;timestamp;pressure;altitude;pressure_sealevel;temperature;humidity
70909;BME280;58554;52.006;5.926;2023-02-16T00:01:44;101556.31;;;5.24;73.42
70909;BME280;58554;52.006;5.926;2023-02-16T00:04:19;101545.91;;;5.23;74.39
70909;BME280;58554;52.006;5.926;2023-02-16T00:06:51;101549.38;;;5.23;74.30
70909;BME280;58554;52.006;5.926;2023-02-16T00:09:19;101539.81;;;5.21;74.06
70909;BME280;58554;52.006;5.926;2023-02-16T00:11:47;101554.66;;;5.20;73.76
70909;BME280;58554;52.006;5.926;2023-02-16T00:14:17;101545.13;;;5.18;74.05
70909;BME280;58554;52.006;5.926;2023-02-16T00:16:45;101556.53;;;5.17;74.04
70909;BME280;58554;52.006;5.926;2023-02-16T00:19:16;101554.78;;;5.16;74.11
70909;BME280;58554;52.006;5.926;2023-02-16T00:21:44;101553.09;;;5.13;74.03
70909;BME280;58554;52.006;5.926;2023-02-16T00:24:14;101543.53;;;5.11;73.83
70909;BME280;58554;52.006;5.926;2023-02-16T00:26:43;101549.66;;;5.10;74.09
70909;BME280;58554;52.006;5.926;2023-02-16T00:29:17;101547.06;;;5.08;73.97
70909;BME280;58554;52.006;5.926;2023-02-16T00:31:46;101548.81;;;5.09;73.67
70909;BME280;58554;52.006;5.926;2023-02-16T00:34:28;101550.59;;;5.08;73.83
70909;BME280;58554;52.006;5.926;2023-02-16T00:36:59;101545.38;;;5.05;74.63
70909;BME280;58554;52.006;5.926;2023-02-16T00:39:30;101547.19;;;5.03;73.88
70909;BME280;58554;52.006;5.926;2023-02-16T00:41:59;101543.75;;;5.00;73.52
70909;BME280;58554;52.006;5.926;2023-02-16T00:44:31;101536.00;;;4.95;74.36
70909;BME280;58554;52.006;5.926;2023-02-16T00:47:02;101538.66;;;4.92;74.34
70909;BME280;58554;52.006;5.926;2023-02-16T00:49:36;101537.84;;;4.90;74.15
70909;BME280;58554;52.006;5.926;2023-02-16T00:52:16;101536.16;;;4.87;
70909;BME280;58554;52.006;5.926;2023-02-16T00:54:55;101545.81;;;4.85;75.20
70909;BME280;58554;52.006;5.926;2023-02-16T00:57:27;101548.47;;;4.82;74.82
70909;BME280;58554;52.006;5.926;2023-02-16T01:00:07;101553.72;;;4.82;74.36
70909;BME280;58554;52.006;5.926;2023-02-16T01:02:45;101542.47;;;4.77;74.43
70909;BME280;58554;52.006;5.926;2023-02-16T01:05:14;101537.28;;;4.74;74.84
70909;BME280;58554;52.006;5.926;2023-02-16T01:07:41;101539.03;;;4.74;74.81
70909;BME280;58554;52.006;5.926;2023-02-16T01:10:11;101537.38;;;4.70;74.92
70909;BME280;58554;52.006;5.926;2023-02-16T01:12:38;101533.09;;;4.67;74.86
70909;BME280;58554;52.006;5.926;2023-02-16T01:15:05;101534.88;;;4.65;74.46
70909;BME280;58554;52.006;5.926;2023-02-16T01:17:38;101527.91;;;4.62;74.53
70909;BME280;58554;52.006;5.926;2023-02-16T01:20:13;101537.59;;;4.59;75.11
70909;BME280;58554;52.006;5.926;2023-02-16T01:22:43;101534.16;;;4.57;75.34
70909;BME280;58554;52.006;5.926;2023-02-16T01:25:13;101535.09;;;4.54;75.23
70909;BME280;58554;52.006;5.926;2023-02-16T01:27:41;101532.53;;;4.50;74.67
70909;BME280;58554;52.006;5.926;2023-02-16T01:30:12;101532.59;;;4.48;74.78
70909;BME280;58554;52.006;5.926;2023-02-16T01:32:41;101532.59;;;4.46;74.79
70909;BME280;58554;52.006;5.926;2023-02-16T01:35:09;101531.81;;;4.43;75.01
70909;BME280;58554;52.006;5.926;2023-02-16T01:37:35;101533.59;;;4.41;75.16
70909;BME280;58554;52.006;5.926;2023-02-16T01:40:02;101524.03;;;4.38;75.32
70909;BME280;58554;52.006;5.926;2023-02-16T01:42:36;101520.59;;;4.35;74.92
70909;BME280;58554;52.006;5.926;2023-02-16T01:45:16;101528.47;;;4.33;74.83
70909;BME280;58554;52.006;5.926;2023-02-16T01:47:57;101527.69;;;4.30;75.05
70909;BME280;58554;52.006;5.926;2023-02-16T01:50:37;101519.88;;;4.28;75.33
70909;BME280;58554;52.006;5.926;2023-02-16T01:53:17;101508.56;;;4.26;75.21
70909;BME280;58554;52.006;5.926;2023-02-16T01:55:55;101506.84;;;4.25;75.05
70909;BME280;58554;52.006;5.926;2023-02-16T01:58:34;101502.50;;;4.22;75.11
70909;BME280;58554;52.006;5.926;2023-02-16T02:01:38;101490.44;;;4.17;75.68
70909;BME280;58554;52.006;5.926;2023-02-16T02:04:20;101495.66;;;4.17;75.37
70909;BME280;58554;52.006;5.926;2023-02-16T02:06:54;101501.78;;;4.16;75.57
70909;BME280;58554;52.006;5.926;2023-02-16T02:09:24;101507.03;;;4.14;75.17
70909;BME280;58554;52.006;5.926;2023-02-16T02:12:08;101499.28;;;4.10;75.16
70909;BME280;58554;52.006;5.926;2023-02-16T02:14:42;101497.63;;;4.04;75.66
70909;BME280;58554;52.006;5.926;2023-02-16T02:17:12;101497.72;;;3.99;76.11
70909;BME280;58554;52.006;5.926;2023-02-16T02:19:49;101496.00;;;3.98;76.11
70909;BME280;58554;52.006;5.926;2023-02-16T02:26:05;101481.25;;;3.94;76.10
70909;BME280;58554;52.006;5.926;2023-02-16T02:29:05;101478.66;;;3.93;77.31
70909;BME280;58554;52.006;5.926;2023-02-16T02:31:50;101479.50;;;3.93;77.50
70909;BME280;58554;52.006;5.926;2023-02-16T02:34:37;101480.41;;;3.92;77.25
70909;BME280;58554;52.006;5.926;2023-02-16T02:37:28;101480.44;;;3.91;77.22
70909;BME280;58554;52.006;5.926;2023-02-16T02:40:10;101476.97;;;3.90;76.97
70909;BME280;58554;52.006;5.926;2023-02-16T02:42:54;101480.44;;;3.89;77.23
70909;BME280;58554;52.006;5.926;2023-02-16T02:45:34;101475.28;;;3.88;77.18
70909;BME280;58554;52.006;5.926;2023-02-16T02:48:05;101477.84;;;3.89;78.35
70909;BME280;58554;52.006;5.926;2023-02-16T02:50:47;101470.91;;;3.88;77.13
70909;BME280;58554;52.006;5.926;2023-02-16T02:53:18;101475.28;;;3.88;77.45
70909;BME280;58554;52.006;5.926;2023-02-16T02:55:47;101479.66;;;3.85;77.24
70909;BME280;58554;52.006;5.926;2023-02-16T02:58:16;101467.47;;;3.84;77.92
70909;BME280;58554;52.006;5.926;2023-02-16T03:00:51;101468.31;;;3.85;77.88
70909;BME280;58554;52.006;5.926;2023-02-16T03:03:20;101460.44;;;3.86;78.74
70909;BME280;58554;52.006;5.926;2023-02-16T03:05:56;101464.75;;;3.89;77.26
70909;BME280;58554;52.006;5.926;2023-02-16T03:08:29;101459.47;;;3.92;77.56
70909;BME280;58554;52.006;5.926;2023-02-16T03:11:02;101457.72;;;3.93;77.88
70909;BME280;58554;52.006;5.926;2023-02-16T03:13:36;101463.78;;;3.95;77.51
70909;BME280;58554;52.006;5.926;2023-02-16T03:16:11;101454.19;;;3.95;77.86
70909;BME280;58554;52.006;5.926;2023-02-16T03:18:41;101453.31;;;3.96;77.68
70909;BME280;58554;52.006;5.926;2023-02-16T03:21:12;101451.53;;;3.97;77.04
70909;BME280;58554;52.006;5.926;2023-02-16T03:23:41;101451.53;;;3.97;77.18
70909;BME280;58554;52.006;5.926;2023-02-16T03:26:10;101455.09;;;3.94;77.69
70909;BME280;58554;52.006;5.926;2023-02-16T03:28:40;101450.72;;;3.93;77.62
70909;BME280;58554;52.006;5.926;2023-02-16T03:31:16;101444.66;;;3.91;77.22
70909;BME280;58554;52.006;5.926;2023-02-16T03:33:47;101452.50;;;3.91;77.89
70909;BME280;58554;52.006;5.926;2023-02-16T03:36:15;101444.72;;;3.90;78.22
70909;BME280;58554;52.006;5.926;2023-02-16T03:38:42;101442.13;;;3.88;77.95
70909;BME280;58554;52.006;5.926;2023-02-16T03:41:08;101439.53;;;3.85;77.66
70909;BME280;58554;52.006;5.926;2023-02-16T03:43:35;101447.47;;;3.82;77.74
70909;BME280;58554;52.006;5.926;2023-02-16T03:46:01;101443.16;;;3.79;77.83
70909;BME280;58554;52.006;5.926;2023-02-16T03:48:30;101444.94;;;3.77;77.55
70909;BME280;58554;52.006;5.926;2023-02-16T03:50:57;101445.81;;;3.75;77.85
70909;BME280;58554;52.006;5.926;2023-02-16T03:53:23;101444.13;;;3.74;77.78
70909;BME280;58554;52.006;5.926;2023-02-16T03:55:50;101444.97;;;3.74;77.79
70909;BME280;58554;52.006;5.926;2023-02-16T03:58:20;101436.28;;;3.74;78.12
70909;BME280;58554;52.006;5.926;2023-02-16T04:00:49;101445.00;;;3.73;78.63
70909;BME280;58554;52.006;5.926;2023-02-16T04:03:16;101455.44;;;3.73;78.03
70909;BME280;58554;52.006;5.926;2023-02-16T04:05:45;101445.00;;;3.73;77.89
70909;BME280;58554;52.006;5.926;2023-02-16T04:08:12;101444.97;;;3.74;78.00
70909;BME280;58554;52.006;5.926;2023-02-16T04:10:39;101432.81;;;3.73;78.33
70909;BME280;58554;52.006;5.926;2023-02-16T04:13:05;101451.13;;;3.73;77.98
70909;BME280;58554;52.006;5.926;2023-02-16T04:15:32;101455.44;;;3.74;78.05
70909;BME280;58554;52.006;5.926;2023-02-16T04:18:00;101445.81;;;3.76;78.33
70909;BME280;58554;52.006;5.926;2023-02-16T04:20:29;101449.25;;;3.78;78.76
70909;BME280;58554;52.006;5.926;2023-02-16T04:23:00;101450.06;;;3.83;78.82
70909;BME280;58554;52.006;5.926;2023-02-16T04:25:28;101452.59;;;3.86;78.68
70909;BME280;58554;52.006;5.926;2023-02-16T04:27:55;101456.88;;;3.91;78.55
70909;BME280;58554;52.006;5.926;2023-02-16T04:30:25;101463.75;;;3.96;78.18
70909;BME280;58554;52.006;5.926;2023-02-16T04:32:53;101463.69;;;4.01;78.86
70909;BME280;58554;52.006;5.926;2023-02-16T04:35:21;101460.97;;;4.04;78.51
70909;BME280;58554;52.006;5.926;2023-02-16T04:37:48;101461.78;;;4.07;78.33
70909;BME280;58554;52.006;5.926;2023-02-16T04:40:17;101464.38;;;4.11;78.43
70909;BME280;58554;52.006;5.926;2023-02-16T04:42:44;101456.47;;;4.12;78.11
70909;BME280;58554;52.006;5.926;2023-02-16T04:45:11;101458.13;;;4.16;78.34
70909;BME280;58554;52.006;5.926;2023-02-16T04:47:38;101457.25;;;4.17;78.25
70909;BME280;58554;52.006;5.926;2023-02-16T04:50:06;101451.13;;;4.18;78.09
70909;BME280;58554;52.006;5.926;2023-02-16T04:52:34;101449.34;;;4.20;77.83
70909;BME280;58554;52.006;5.926;2023-02-16T04:55:02;101447.59;;;4.21;77.62
70909;BME280;58554;52.006;5.926;2023-02-16T04:57:31;101456.28;;;4.23;77.80
70909;BME280;58554;52.006;5.926;2023-02-16T04:59:58;101446.66;;;4.23;77.70
70909;BME280;58554;52.006;5.926;2023-02-16T05:02:24;101451.91;;;4.23;78.14
70909;BME280;58554;52.006;5.926;2023-02-16T05:04:51;101444.91;;;4.24;77.56
70909;BME280;58554;52.006;5.926;2023-02-16T05:07:17;101437.91;;;4.24;77.49
70909;BME280;58554;52.006;5.926;2023-02-16T05:09:44;101451.88;;;4.25;77.81
70909;BME280;58554;52.006;5.926;2023-02-16T05:12:10;101448.44;;;4.23;77.65
70909;BME280;58554;52.006;5.926;2023-02-16T05:14:39;101445.81;;;4.23;77.81
70909;BME280;58554;52.006;5.926;2023-02-16T05:17:07;101435.28;;;4.24;77.35
70909;BME280;58554;52.006;5.926;2023-02-16T05:19:33;101444.91;;;4.24;77.80
70909;BME280;58554;52.006;5.926;2023-02-16T05:22:00;101429.19;;;4.24;77.75
70909;BME280;58554;52.006;5.926;2023-02-16T05:24:27;101435.34;;;4.23;77.83
70909;BME280;58554;52.006;5.926;2023-02-16T05:26:53;101437.06;;;4.22;77.92
70909;BME280;58554;52.006;5.926;2023-02-16T05:29:20;101441.44;;;4.22;78.17
70909;BME280;58554;52.006;5.926;2023-02-16T05:31:49;101438.81;;;4.23;77.98
70909;BME280;58554;52.006;5.926;2023-02-16T05:34:15;101442.31;;;4.22;78.42
70909;BME280;58554;52.006;5.926;2023-02-16T05:36:42;101439.66;;;4.24;78.04
70909;BME280;58554;52.006;5.926;2023-02-16T05:39:08;101426.59;;;4.22;78.44
70909;BME280;58554;52.006;5.926;2023-02-16T05:41:35;101437.06;;;4.22;78.38
70909;BME280;58554;52.006;5.926;2023-02-16T05:44:03;101423.09;;;4.23;77.96
70909;BME280;58554;52.006;5.926;2023-02-16T05:46:32;101422.19;;;4.24;78.14
70909;BME280;58554;52.006;5.926;2023-02-16T05:49:04;101423.09;;;4.25;77.96
70909;BME280;58554;52.006;5.926;2023-02-16T05:51:31;101420.47;;;4.25;78.13
70909;BME280;58554;52.006;5.926;2023-02-16T05:53:58;101418.72;;;4.24;78.70
70909;BME280;58554;52.006;5.926;2023-02-16T05:56:25;101429.19;;;4.24;78.96
70909;BME280;58554;52.006;5.926;2023-02-16T05:58:52;101419.59;;;4.24;78.46
70909;BME280;58554;52.006;5.926;2023-02-16T06:01:19;101414.31;;;4.26;78.14
70909;BME280;58554;52.006;5.926;2023-02-16T06:03:46;101418.63;;;4.28;78.19
70909;BME280;58554;52.006;5.926;2023-02-16T06:06:15;101402.06;;;4.28;78.22
70909;BME280;58554;52.006;5.926;2023-02-16T06:08:42;101420.38;;;4.28;78.56
70909;BME280;58554;52.006;5.926;2023-02-16T06:11:09;101427.41;;;4.26;78.49
70909;BME280;58554;52.006;5.926;2023-02-16T06:13:36;101429.13;;;4.27;78.76
70909;BME280;58554;52.006;5.926;2023-02-16T06:16:03;101424.72;;;4.29;78.07
70909;BME280;58554;52.006;5.926;2023-02-16T06:18:30;101411.63;;;4.29;78.18
70909;BME280;58554;52.006;5.926;2023-02-16T06:20:56;101407.22;;;4.31;77.84
70909;BME280;58554;52.006;5.926;2023-02-16T06:23:25;101421.13;;;4.35;78.04
70909;BME280;58554;52.006;5.926;2023-02-16T06:25:51;101418.50;;;4.35;77.89
70909;BME280;58554;52.006;5.926;2023-02-16T06:28:18;101412.41;;;4.34;78.10
70909;BME280;58554;52.006;5.926;2023-02-16T06:30:44;101432.41;;;4.37;77.56
70909;BME280;58554;52.006;5.926;2023-02-16T06:33:11;101427.16;;;4.38;77.94
70909;BME280;58554;52.006;5.926;2023-02-16T06:35:37;101435.00;;;4.38;77.75
70909;BME280;58554;52.006;5.926;2023-02-16T06:38:04;101434.09;;;4.39;77.62
70909;BME280;58554;52.006;5.926;2023-02-16T06:40:33;101444.56;;;4.39;77.76
70909;BME280;58554;52.006;5.926;2023-02-16T06:42:59;101429.75;;;4.40;77.95
70909;BME280;58554;52.006;5.926;2023-02-16T06:45:26;101422.75;;;4.40;78.29
70909;BME280;58554;52.006;5.926;2023-02-16T06:47:52;101432.31;;;4.41;78.22
70909;BME280;58554;52.006;5.926;2023-02-16T06:50:19;101416.59;;;4.41;77.92
70909;BME280;58554;52.006;5.926;2023-02-16T06:52:45;101430.53;;;4.43;78.34
70909;BME280;58554;52.006;5.926;2023-02-16T06:55:12;101424.44;;;4.43;78.44
70909;BME280;58554;52.006;5.926;2023-02-16T06:57:41;101422.66;;;4.43;78.22
70909;BME280;58554;52.006;5.926;2023-02-16T07:00:08;101432.25;;;4.46;78.52
70909;BME280;58554;52.006;5.926;2023-02-16T07:02:35;101436.56;;;4.47;78.77
70909;BME280;58554;52.006;5.926;2023-02-16T07:05:02;101447.84;;;4.51;78.38
70909;BME280;58554;52.006;5.926;2023-02-16T07:07:29;101451.22;;;4.56;78.14
70909;BME280;58554;52.006;5.926;2023-02-16T07:09:55;101434.56;;;4.58;78.21
70909;BME280;58554;52.006;5.926;2023-02-16T07:12:22;101438.91;;;4.61;77.99
70909;BME280;58554;52.006;5.926;2023-02-16T07:14:51;101428.34;;;4.64;77.68
70909;BME280;58554;52.006;5.926;2023-02-16T07:17:17;101434.41;;;4.66;78.17
70909;BME280;58554;52.006;5.926;2023-02-16T07:19:44;101426.59;;;4.64;78.35
70909;BME280;58554;52.006;5.926;2023-02-16T07:22:11;101438.81;;;4.64;78.33
70909;BME280;58554;52.006;5.926;2023-02-16T07:24:38;101445.81;;;4.63;78.53
70909;BME280;58554;52.006;5.926;2023-02-16T07:27:04;101441.41;;;4.65;78.24
70909;BME280;58554;52.006;5.926;2023-02-16T07:29:31;101435.25;;;4.68;78.22
70909;BME280;58554;52.006;5.926;2023-02-16T07:32:00;101440.47;;;4.68;78.39
70909;BME280;58554;52.006;5.926;2023-02-16T07:34:27;101438.69;;;4.70;78.28
70909;BME280;58554;52.006;5.926;2023-02-16T07:36:54;101441.25;;;4.73;77.93
70909;BME280;58554;52.006;5.926;2023-02-16T07:39:20;101442.09;;;4.75;78.29
70909;BME280;58554;52.006;5.926;2023-02-16T07:41:47;101432.44;;;4.77;78.52
70909;BME280;58554;52.006;5.926;2023-02-16T07:44:13;101431.53;;;4.78;78.32
70909;BME280;58554;52.006;5.926;2023-02-16T07:46:40;101436.72;;;4.81;78.23
70909;BME280;58554;52.006;5.926;2023-02-16T07:49:09;101440.09;;;4.85;77.83
70909;BME280;58554;52.006;5.926;2023-02-16T07:51:36;101438.28;;;4.88;77.97
70909;BME280;58554;52.006;5.926;2023-02-16T07:54:02;101444.31;;;4.92;78.20
70909;BME280;58554;52.006;5.926;2023-02-16T07:56:30;101444.28;;;4.95;78.39
70909;BME280;58554;52.006;5.926;2023-02-16T07:59:00;101456.41;;;4.99;78.01
70909;BME280;58554;52.006;5.926;2023-02-16T08:01:28;101455.44;;;5.03;78.34
70909;BME280;58554;52.006;5.926;2023-02-16T08:03:55;101455.38;;;5.06;78.08
70909;BME280;58554;52.006;5.926;2023-02-16T08:06:25;101466.56;;;5.15;77.83
70909;BME280;58554;52.006;5.926;2023-02-16T08:08:52;101460.28;;;5.20;77.90
70909;BME280;58554;52.006;5.926;2023-02-16T08:11:20;101468.81;;;5.28;77.75
70909;BME280;58554;52.006;5.926;2023-02-16T08:13:49;101473.09;;;5.33;78.11
70909;BME280;58554;52.006;5.926;2023-02-16T08:16:18;101466.09;;;5.33;77.90
70909;BME280;58554;52.006;5.926;2023-02-16T08:18:47;101468.66;;;5.36;77.65
70909;BME280;58554;52.006;5.926;2023-02-16T08:21:16;101468.50;;;5.42;77.38
70909;BME280;58554;52.006;5.926;2023-02-16T08:23:52;101478.88;;;5.47;77.30
70909;BME280;58554;52.006;5.926;2023-02-16T08:26:21;101478.81;;;5.50;77.18
70909;BME280;58554;52.006;5.926;2023-02-16T08:28:49;101480.63;;;5.48;77.34
70909;BME280;58554;52.006;5.926;2023-02-16T08:31:19;101475.41;;;5.46;77.15
70909;BME280;58554;52.006;5.926;2023-02-16T08:33:48;101466.59;;;5.49;77.25
70909;BME280;58554;52.006;5.926;2023-02-16T08:36:16;101477.09;;;5.47;77.35
70909;BME280;58554;52.006;5.926;2023-02-16T08:38:47;101477.16;;;5.46;77.38
70909;BME280;58554;52.006;5.926;2023-02-16T08:41:14;101478.06;;;5.45;77.36
70909;BME280;58554;52.006;5.926;2023-02-16T08:43:40;101472.81;;;5.45;77.39
70909;BME280;58554;52.006;5.926;2023-02-16T08:46:07;101478.97;;;5.44;77.76
70909;BME280;58554;52.006;5.926;2023-02-16T08:48:33;101480.69;;;5.45;77.31
70909;BME280;58554;52.006;5.926;2023-02-16T08:51:00;101471.00;;;5.47;77.76
70909;BME280;58554;52.006;5.926;2023-02-16T08:53:28;101474.44;;;5.49;77.43
70909;BME280;58554;52.006;5.926;2023-02-16T08:55:58;101476.19;;;5.50;77.75
70909;BME280;58554;52.006;5.926;2023-02-16T08:58:25;101475.28;;;5.51;78.00
70909;BME280;58554;52.006;5.926;2023-02-16T09:00:52;101475.25;;;5.53;77.47
70909;BME280;58554;52.006;5.926;2023-02-16T09:03:18;101475.22;;;5.54;77.55
70909;BME280;58554;52.006;5.926;2023-02-16T09:05:45;101486.44;;;5.59;77.54
70909;BME280;58554;52.006;5.926;2023-02-16T09:08:13;101489.88;;;5.61;77.46
70909;BME280;58554;52.006;5.926;2023-02-16T09:10:40;101496.78;;;5.65;77.53
70909;BME280;58554;52.006;5.926;2023-02-16T09:13:09;101488.00;;;5.66;77.43
70909;BME280;58554;52.006;5.926;2023-02-16T09:15:36;101494.06;;;5.68;77.38
70909;BME280;58554;52.006;5.926;2023-02-16T09:18:03;101501.06;;;5.69;77.16
70909;BME280;58554;52.006;5.926;2023-02-16T09:20:29;101501.84;;;5.73;77.13
70909;BME280;58554;52.006;5.926;2023-02-16T09:22:56;101502.69;;;5.74;77.41
70909;BME280;58554;52.006;5.926;2023-02-16T09:25:22;101503.44;;;5.79;77.34
70909;BME280;58554;52.006;5.926;2023-02-16T09:27:49;101498.97;;;5.82;77.39
70909;BME280;58554;52.006;5.926;2023-02-16T09:30:18;101499.81;;;5.84;77.61
70909;BME280;58554;52.006;5.926;2023-02-16T09:32:45;101504.19;;;5.84;77.67
70909;BME280;58554;52.006;5.926;2023-02-16T09:35:12;101496.28;;;5.85;77.48
70909;BME280;58554;52.006;5.926;2023-02-16T09:37:38;101509.28;;;5.90;77.46
70909;BME280;58554;52.006;5.926;2023-02-16T09:40:06;101495.25;;;5.91;77.43
70909;BME280;58554;52.006;5.926;2023-02-16T09:42:58;101498.53;;;5.99;77.34
70909;BME280;58554;52.006;5.926;2023-02-16T09:45:41;101505.38;;;6.06;77.32
70909;BME280;58554;52.006;5.926;2023-02-16T09:48:20;101501.75;;;6.11;77.78
70909;BME280;58554;52.006;5.926;2023-02-16T09:50:51;101496.41;;;6.14;77.52
70909;BME280;58554;52.006;5.926;2023-02-16T09:53:22;101501.50;;;6.20;77.63
70909;BME280;58554;52.006;5.926;2023-02-16T09:56:02;101485.56;;;6.26;77.80
70909;BME280;58554;52.006;5.926;2023-02-16T09:58:40;101503.00;;;6.28;77.98
70909;BME280;58554;52.006;5.926;2023-02-16T10:01:18;101498.59;;;6.29;77.85
70909;BME280;58554;52.006;5.926;2023-02-16T10:04:03;101487.06;;;6.35;77.87
70909;BME280;58554;52.006;5.926;2023-02-16T10:06:52;101486.94;;;6.39;78.03
70909;BME280;58554;52.006;5.926;2023-02-16T10:09:28;101495.53;;;6.46;77.85
70909;BME280;58554;52.006;5.926;2023-02-16T10:12:01;101497.19;;;6.48;78.09
70909;BME280;58554;52.006;5.926;2023-02-16T10:14:38;101491.09;;;6.48;78.39
70909;BME280;58554;52.006;5.926;2023-02-16T10:17:16;101483.25;;;6.46;78.47
70909;BME280;58554;52.006;5.926;2023-02-16T10:19:53;101486.69;;;6.48;78.28
70909;BME280;58554;52.006;5.926;2023-02-16T10:22:28;101487.47;;;6.52;78.53
70909;BME280;58554;52.006;5.926;2023-02-16T10:25:02;101485.69;;;6.53;78.65
70909;BME280;58554;52.006;5.926;2023-02-16T10:27:37;101477.78;;;6.54;79.01
70909;BME280;58554;52.006;5.926;2023-02-16T10:30:12;101480.28;;;6.57;79.00
70909;BME280;58554;52.006;5.926;2023-02-16T10:32:53;101482.88;;;6.59;79.46
70909;BME280;58554;52.006;5.926;2023-02-16T10:35:30;101483.63;;;6.62;79.13
70909;BME280;58554;52.006;5.926;2023-02-16T10:38:11;101488.97;;;6.61;79.57
70909;BME280;58554;52.006;5.926;2023-02-16T10:40:52;101496.78;;;6.62;79.45
70909;BME280;58554;52.006;5.926;2023-02-16T10:43:41;101498.59;;;6.60;79.24
70909;BME280;58554;52.006;5.926;2023-02-16T10:46:19;101503.84;;;6.60;79.52
70909;BME280;58554;52.006;5.926;2023-02-16T10:48:55;101495.09;;;6.60;79.46
70909;BME280;58554;52.006;5.926;2023-02-16T10:51:26;101485.44;;;6.60;79.48
70909;BME280;58554;52.006;5.926;2023-02-16T10:54:01;101505.53;;;6.63;79.68
70909;BME280;58554;52.006;5.926;2023-02-16T10:56:45;101492.41;;;6.63;79.55
70909;BME280;58554;52.006;5.926;2023-02-16T10:59:19;101493.25;;;6.63;79.98
70909;BME280;58554;52.006;5.926;2023-02-16T11:01:50;101495.06;;;6.61;80.14
70909;BME280;58554;52.006;5.926;2023-02-16T11:04:45;101472.31;;;6.60;79.84
70909;BME280;58554;52.006;5.926;2023-02-16T11:07:15;101472.41;;;6.57;80.28
70909;BME280;58554;52.006;5.926;2023-02-16T11:09:46;101489.19;;;6.53;80.78
70909;BME280;58554;52.006;5.926;2023-02-16T11:12:23;101487.53;;;6.49;80.73
70909;BME280;58554;52.006;5.926;2023-02-16T11:14:56;101477.03;;;6.49;80.62
70909;BME280;58554;52.006;5.926;2023-02-16T11:17:26;101490.16;;;6.49;81.07
70909;BME280;58554;52.006;5.926;2023-02-16T11:19:57;101486.69;;;6.48;80.98
70909;BME280;58554;52.006;5.926;2023-02-16T11:22:30;101482.28;;;6.49;81.19
70909;BME280;58554;52.006;5.926;2023-02-16T11:25:25;101494.53;;;6.50;82.14
70909;BME280;58554;52.006;5.926;2023-02-16T11:27:54;101498.03;;;6.49;82.06
70909;BME280;58554;52.006;5.926;2023-02-16T11:30:32;101499.78;;;6.50;81.31
70909;BME280;58554;52.006;5.926;2023-02-16T11:33:01;101492.72;;;6.52;82.16
70909;BME280;58554;52.006;5.926;2023-02-16T11:35:41;101502.34;;;6.52;82.54
70909;BME280;58554;52.006;5.926;2023-02-16T11:38:26;101501.41;;;6.54;81.58
70909;BME280;58554;52.006;5.926;2023-02-16T11:40:55;101496.06;;;6.57;81.63
70909;BME280;58554;52.006;5.926;2023-02-16T11:43:26;101488.00;;;6.63;81.42
70909;BME280;58554;52.006;5.926;2023-02-16T11:46:00;101482.66;;;6.66;81.11
70909;BME280;58554;52.006;5.926;2023-02-16T11:48:31;101478.19;;;6.68;81.04
70909;BME280;58554;52.006;5.926;2023-02-16T11:51:07;101467.66;;;6.70;81.05
70909;BME280;58554;52.006;5.926;2023-02-16T11:53:39;101463.25;;;6.70;81.66
70909;BME280;58554;52.006;5.926;2023-02-16T11:56:17;101480.72;;;6.73;81.36
70909;BME280;58554;52.006;5.926;2023-02-16T12:01:58;101455.97;;;6.80;81.54
70909;BME280;58554;52.006;5.926;2023-02-16T12:04:49;101462.81;;;6.86;82.33
70909;BME280;58554;52.006;5.926;2023-02-16T12:07:36;101456.59;;;6.88;82.44
70909;BME280;58554;52.006;5.926;2023-02-16T12:10:16;101457.28;;;6.94;82.42
70909;BME280;58554;52.006;5.926;2023-02-16T12:12:58;101447.38;;;7.02;82.64
70909;BME280;58554;52.006;5.926;2023-02-16T12:15:37;101449.81;;;7.08;81.88
70909;BME280;58554;52.006;5.926;2023-02-16T12:18:28;101445.25;;;7.15;82.21
70909;BME280;58554;52.006;5.926;2023-02-16T12:21:11;101440.72;;;7.18;82.38
70909;BME280;58554;52.006;5.926;2023-02-16T12:23:55;101443.97;;;7.26;82.37
70909;BME280;58554;52.006;5.926;2023-02-16T12:26:35;101430.66;;;7.31;82.52
70909;BME280;58554;52.006;5.926;2023-02-16T12:29:14;101441.06;;;7.36;83.12
70909;BME280;58554;52.006;5.926;2023-02-16T12:35:03;101416.78;;;7.54;82.28
70909;BME280;58554;52.006;5.926;2023-02-16T12:37:47;101411.09;;;7.66;82.31
70909;BME280;58554;52.006;5.926;2023-02-16T12:40:34;101409.03;;;7.75;81.99
70909;BME280;58554;52.006;5.926;2023-02-16T12:43:28;101399.09;;;7.83;81.67
70909;BME280;58554;52.006;5.926;2023-02-16T12:46:03;101405.72;;;7.95;81.71
70909;BME280;58554;52.006;5.926;2023-02-16T12:48:41;101396.44;;;8.08;81.31
70909;BME280;58554;52.006;5.926;2023-02-16T12:51:17;101395.50;;;8.10;81.61
70909;BME280;58554;52.006;5.926;2023-02-16T12:53:54;101382.19;;;8.14;81.44
70909;BME280;58554;52.006;5.926;2023-02-16T12:56:32;101382.59;;;8.26;81.54
70909;BME280;58554;52.006;5.926;2023-02-16T12:59:16;101368.09;;;8.38;81.52
70909;BME280;58554;52.006;5.926;2023-02-16T13:01:49;101361.66;;;8.45;81.12
70909;BME280;58554;52.006;5.926;2023-02-16T13:04:25;101346.63;;;8.47;80.87
70909;BME280;58554;52.006;5.926;2023-02-16T13:07:06;101358.16;;;8.45;81.00
70909;BME280;58554;52.006;5.926;2023-02-16T13:09:45;101348.47;;;8.45;80.72
70909;BME280;58554;52.006;5.926;2023-02-16T13:12:27;101354.91;;;8.38;80.71
70909;BME280;58554;52.006;5.926;2023-02-16T13:15:10;101342.59;;;8.39;80.83
70909;BME280;58554;52.006;5.926;2023-02-16T13:17:46;101343.16;;;8.47;80.83
70909;BME280;58554;52.006;5.926;2023-02-16T13:20:20;101337.59;;;8.55;80.81
70909;BME280;58554;52.006;5.926;2023-02-16T13:23:02;101330.78;;;8.71;81.06
70909;BME280;58554;52.006;5.926;2023-02-16T13:29:42;101333.25;;;10.18;80.08
70909;BME280;58554;52.006;5.926;2023-02-16T13:32:53;101325.03;;;10.24;78.39
70909;BME280;58554;52.006;5.926;2023-02-16T13:35:46;101341.09;;;10.19;76.98
70909;BME280;58554;52.006;5.926;2023-02-16T13:42:23;101322.03;;;10.12;77.19
70909;BME280;58554;52.006;5.926;2023-02-16T13:45:03;101317.84;;;10.08;77.39